KGSB/GSB METAR and TAF weather

Enter ICAO airport designator
Station Type Date Time Source
KGSB METAR 2020/08/07 12:59 UTC NOAA

KGSB 071259Z 00000KT 10SM -RA OVC004 25/25 A3008 RMK AO2A RAB1251 SLP188 P0000


Station Type Date Time Source
KGSB Decoded METAR 2020/08/07 12:59 UTC NOAA

Seymour-Johnson Air Force Base, NC, United States (KGSB) 35-20N 077-58W
Aug 07, 2020 - 08:59 AM EDT / 2020.08.07 1259 UTC
Wind: Calm:0
Visibility: 10 mile(s):0
Sky conditions: overcast
Weather: light rain
Precipitation last hour: A trace
Temperature: 77 F (25 C)
Dew Point: 77 F (25 C)
Relative Humidity: 100%
Pressure (altimeter): 30.08 in. Hg (1018 hPa)
ob: KGSB 071259Z 00000KT 10SM -RA OVC004 25/25 A3008 RMK AO2A RAB1251 SLP188 P0000
cycle: 13

Station Type Date Time Source
KGSB TAF 2020/08/07 12:10 UTC NOAA

TAF KGSB 071200Z 0712/0818 16003KT 0400 FG OVC001 QNH3006INS
TEMPO 0712/0714 18006KT 0800 -TSRA OVC005CB
BECMG 0714/0715 20005KT 9999 NSW BKN015 QNH3005INS
TEMPO 0718/0724 20012G18KT 8000 -TSRA BKN030CB
BECMG 0800/0801 21006KT 9999 BKN015 QNH3000INS
BECMG 0802/0803 21006KT 9999 BKN010 QNH2999INS TX32/0720Z TN24/0712Z

Example: see airport list